Time;durP1;ratioP1;P1;durP2;ratioP2;P2;SDS_P1;SDS_P2;PMS_P1;PMS_P2;Temp;Humidity;BMP_temperature;BMP_pressure;BME280_temperature;BME280_humidity;BME280_pressure;Samples;Min_cycle;Max_cycle;Signal;HPM_P1;HPM_P2
2023/05/17 00:00:58;;;;;;;10.40;9.70;;;6.80;99.90;;;;;;4977811;28;20192;-77
2023/05/17 00:03:25;;;;;;;10.13;9.40;;;6.70;99.90;;;;;;4964251;28;20209;-76
2023/05/17 00:05:52;;;;;;;10.33;9.63;;;6.70;99.90;;;;;;4960341;28;20667;-77
2023/05/17 00:08:18;;;;;;;9.97;9.37;;;6.60;99.90;;;;;;4960811;28;20695;-76
2023/05/17 00:10:45;;;;;;;10.73;9.93;;;6.60;99.90;;;;;;4977755;28;20196;-77
2023/05/17 00:13:12;;;;;;;11.10;10.10;;;6.60;99.90;;;;;;4977604;28;20205;-77
2023/05/17 00:15:40;;;;;;;10.60;9.70;;;6.50;99.90;;;;;;4977319;28;20720;-77
2023/05/17 00:18:07;;;;;;;10.47;9.60;;;6.50;99.90;;;;;;4960306;28;20206;-76
2023/05/17 00:20:34;;;;;;;11.40;10.50;;;6.50;99.90;;;;;;4959958;28;20228;-76
2023/05/17 00:23:01;;;;;;;11.10;10.20;;;6.50;99.90;;;;;;4975507;28;20585;-77
2023/05/17 00:25:28;;;;;;;11.10;10.40;;;6.40;99.90;;;;;;4968455;28;20298;-77
2023/05/17 00:27:55;;;;;;;10.93;9.90;;;6.40;99.90;;;;;;4960120;28;20216;-77
2023/05/17 00:30:22;;;;;;;10.60;9.70;;;6.40;99.90;;;;;;4959807;28;20208;-76
2023/05/17 00:32:50;;;;;;;11.00;10.30;;;6.40;99.90;;;;;;4959615;28;20247;-77
2023/05/17 00:35:18;;;;;;;11.13;10.33;;;6.40;99.90;;;;;;4959170;28;20689;-76
2023/05/17 00:37:46;;;;;;;11.53;10.60;;;6.30;99.90;;;;;;4967278;28;20211;-77
2023/05/17 00:40:14;;;;;;;11.60;10.80;;;6.30;99.90;;;;;;4977302;28;20204;-76
2023/05/17 00:42:41;;;;;;;11.00;10.20;;;6.40;99.90;;;;;;4959745;28;20199;-76
2023/05/17 00:45:09;;;;;;;10.73;9.83;;;6.40;99.90;;;;;;4959289;28;20224;-76
2023/05/17 00:47:36;;;;;;;11.30;10.50;;;6.30;99.90;;;;;;4959852;28;20227;-76
2023/05/17 00:50:05;;;;;;;11.30;10.40;;;6.30;99.90;;;;;;4959642;28;20822;-76
2023/05/17 00:52:32;;;;;;;11.03;10.23;;;6.30;99.90;;;;;;4959697;28;20278;-77
2023/05/17 00:54:59;;;;;;;10.70;9.90;;;6.30;99.90;;;;;;4968921;28;20257;-76
2023/05/17 00:57:27;;;;;;;11.50;10.47;;;6.20;99.90;;;;;;4959760;28;20247;-77
2023/05/17 00:59:55;;;;;;;12.03;10.80;;;6.20;99.90;;;;;;4959614;28;20218;-77
2023/05/17 01:02:23;;;;;;;12.17;11.13;;;6.30;99.90;;;;;;4967355;28;20226;-76
2023/05/17 01:04:50;;;;;;;11.10;10.40;;;6.20;99.90;;;;;;4976531;28;20234;-77
2023/05/17 01:07:19;;;;;;;11.93;11.13;;;6.20;99.90;;;;;;4969843;28;20207;-76
2023/05/17 01:09:47;;;;;;;8.60;7.90;;;6.20;99.90;;;;;;4977105;28;20240;-77
2023/05/17 01:12:24;;;;;;;10.07;9.03;;;6.20;99.90;;;;;;4959121;28;20279;-76
2023/05/17 01:15:03;;;;;;;4.40;3.93;;;6.20;99.90;;;;;;4958806;28;20233;-76
2023/05/17 01:17:38;;;;;;;4.93;4.10;;;6.20;99.90;;;;;;4959205;28;20258;-76
2023/05/17 01:20:14;;;;;;;4.53;3.97;;;6.10;99.90;;;;;;4958832;28;20798;-77
2023/05/17 01:22:51;;;;;;;5.30;4.03;;;6.10;99.90;;;;;;4975320;28;20200;-76
2023/05/17 01:25:29;;;;;;;11.70;10.70;;;6.10;99.90;;;;;;4958614;28;20272;-77
2023/05/17 01:28:02;;;;;;;11.33;10.63;;;6.10;99.90;;;;;;4958805;28;20588;-76
2023/05/17 01:30:30;;;;;;;11.30;10.30;;;6.10;99.90;;;;;;4959124;28;20202;-76
2023/05/17 01:32:58;;;;;;;10.03;9.23;;;6.10;99.90;;;;;;4959082;28;20314;-77
2023/05/17 01:35:26;;;;;;;9.87;9.20;;;6.20;99.90;;;;;;4958528;28;20597;-77
2023/05/17 01:37:53;;;;;;;10.97;10.17;;;6.10;99.90;;;;;;4984206;28;20196;-76
2023/05/17 01:40:21;;;;;;;10.70;10.00;;;6.10;99.90;;;;;;4970344;28;20235;-77
2023/05/17 01:42:52;;;;;;;11.13;10.30;;;6.10;99.90;;;;;;4975554;28;20207;-76
2023/05/17 01:45:24;;;;;;;11.20;10.40;;;6.20;99.90;;;;;;4970658;28;20780;-76
2023/05/17 01:48:00;;;;;;;10.90;10.00;;;6.10;99.90;;;;;;4960272;28;20266;-77
2023/05/17 01:50:30;;;;;;;10.70;10.00;;;6.10;99.90;;;;;;4959294;28;20289;-77
2023/05/17 01:53:03;;;;;;;11.23;10.43;;;6.00;99.90;;;;;;4971863;28;20294;-76
2023/05/17 01:55:36;;;;;;;11.47;10.57;;;6.00;99.90;;;;;;4975889;28;20302;-76
2023/05/17 01:58:07;;;;;;;11.53;10.83;;;6.00;99.90;;;;;;4968360;28;20269;-77
2023/05/17 02:00:38;;;;;;;12.90;12.00;;;5.90;99.90;;;;;;4958882;28;20742;-76
2023/05/17 02:03:05;;;;;;;11.50;10.70;;;5.90;99.90;;;;;;4958708;28;20218;-77
2023/05/17 02:05:31;;;;;;;11.47;10.63;;;5.80;99.90;;;;;;4975678;28;20596;-77
2023/05/17 02:07:58;;;;;;;10.97;10.27;;;5.80;99.90;;;;;;4958656;28;20234;-76
2023/05/17 02:10:25;;;;;;;11.10;10.30;;;5.80;99.90;;;;;;4976152;28;20206;-76
2023/05/17 02:12:52;;;;;;;11.50;10.60;;;5.70;99.90;;;;;;4958367;28;20212;-76
2023/05/17 02:15:20;;;;;;;10.10;9.20;;;5.70;99.90;;;;;;4960241;28;20678;-76
2023/05/17 02:17:48;;;;;;;15.00;13.90;;;5.70;99.90;;;;;;4961302;28;20203;-76
2023/05/17 02:20:15;;;;;;;11.43;10.63;;;5.70;99.90;;;;;;4976156;28;20194;-77
2023/05/17 02:22:42;;;;;;;12.03;11.23;;;5.60;99.90;;;;;;4966856;28;20221;-76
2023/05/17 02:25:09;;;;;;;12.00;11.07;;;5.60;99.90;;;;;;4963965;28;20640;-76
2023/05/17 02:27:36;;;;;;;12.37;11.40;;;5.50;99.90;;;;;;4958341;28;20302;-76
2023/05/17 02:30:04;;;;;;;13.27;12.20;;;5.50;99.90;;;;;;4958208;28;20198;-76
2023/05/17 02:32:31;;;;;;;12.00;11.10;;;5.50;99.90;;;;;;4958204;28;20695;-76
2023/05/17 02:34:59;;;;;;;12.07;11.07;;;5.50;99.90;;;;;;4957140;28;20250;-76
2023/05/17 02:37:26;;;;;;;6.17;4.20;;;5.40;99.90;;;;;;4967453;28;20202;-77
2023/05/17 02:39:52;;;;;;;6.30;3.90;;;5.30;99.90;;;;;;4961781;28;20215;-76
2023/05/17 02:42:19;;;;;;;8.57;7.87;;;5.30;99.90;;;;;;4979149;28;20721;-81
2023/05/17 02:44:47;;;;;;;5.53;4.67;;;5.30;99.90;;;;;;4977513;28;20237;-77
2023/05/17 02:47:15;;;;;;;7.70;6.40;;;5.20;99.90;;;;;;4961204;28;20226;-76
2023/05/17 02:49:41;;;;;;;11.17;10.07;;;5.10;99.90;;;;;;4977975;28;20201;-77
2023/05/17 02:52:10;;;;;;;9.50;8.80;;;5.10;99.90;;;;;;4975826;28;20289;-76
2023/05/17 02:54:36;;;;;;;12.50;11.60;;;5.10;99.90;;;;;;4974632;28;20218;-79
2023/05/17 02:57:03;;;;;;;13.13;12.00;;;5.00;99.90;;;;;;4960940;28;20201;-79
2023/05/17 02:59:30;;;;;;;13.27;12.20;;;5.00;99.90;;;;;;4979509;28;20198;-78
2023/05/17 03:01:57;;;;;;;13.43;12.50;;;5.00;99.90;;;;;;4980041;28;20640;-80
2023/05/17 03:04:24;;;;;;;12.83;12.03;;;4.90;99.90;;;;;;4975057;28;20249;-80
2023/05/17 03:06:51;;;;;;;12.80;12.00;;;4.90;99.90;;;;;;4970825;28;20209;-80
2023/05/17 03:09:20;;;;;;;14.10;13.00;;;4.80;99.90;;;;;;4977967;28;20199;-78
2023/05/17 03:11:49;;;;;;;13.33;12.53;;;4.80;99.90;;;;;;4972110;28;20247;-79
2023/05/17 03:14:21;;;;;;;13.40;12.53;;;4.70;99.90;;;;;;4971265;28;20225;-78
2023/05/17 03:16:49;;;;;;;13.47;12.57;;;4.70;99.90;;;;;;4970905;28;20539;-78
2023/05/17 03:19:17;;;;;;;13.40;12.40;;;4.70;99.90;;;;;;4967571;28;20196;-78
2023/05/17 03:21:45;;;;;;;14.27;13.27;;;4.70;99.90;;;;;;4964295;28;20198;-77
2023/05/17 03:24:12;;;;;;;14.70;13.60;;;4.70;99.90;;;;;;4964493;28;20241;-79
2023/05/17 03:26:41;;;;;;;15.13;13.93;;;4.70;99.90;;;;;;4960105;28;20202;-78
2023/05/17 03:29:10;;;;;;;14.80;13.40;;;4.60;99.90;;;;;;4969183;28;20205;-80
2023/05/17 03:31:39;;;;;;;14.90;13.70;;;4.70;99.90;;;;;;4959876;28;20729;-79
2023/05/17 03:34:06;;;;;;;15.53;14.23;;;4.70;99.90;;;;;;4975690;28;20220;-78
2023/05/17 03:36:34;;;;;;;15.73;14.60;;;4.70;99.90;;;;;;4955427;28;20285;-79
2023/05/17 03:39:01;;;;;;;16.40;15.10;;;4.70;99.90;;;;;;4959544;28;20221;-78
2023/05/17 03:41:29;;;;;;;16.57;15.37;;;4.70;99.90;;;;;;4959978;28;20216;-78
2023/05/17 03:43:58;;;;;;;16.37;15.27;;;4.70;99.90;;;;;;4958957;28;20272;-78
2023/05/17 03:46:25;;;;;;;16.40;15.10;;;4.70;99.90;;;;;;4975722;28;20252;-79
2023/05/17 03:48:52;;;;;;;16.07;14.87;;;4.70;99.90;;;;;;4968920;28;20681;-79
2023/05/17 03:51:19;;;;;;;16.43;14.80;;;4.80;99.90;;;;;;4980559;28;20198;-77
2023/05/17 03:53:46;;;;;;;16.77;15.30;;;4.90;99.90;;;;;;4959755;28;20223;-77
2023/05/17 03:56:12;;;;;;;16.67;15.33;;;4.90;99.90;;;;;;4950437;28;20205;-75
2023/05/17 03:58:39;;;;;;;17.40;16.13;;;4.90;99.90;;;;;;4957941;28;20252;-76
2023/05/17 04:01:07;;;;;;;18.10;16.80;;;5.00;99.90;;;;;;4957240;28;20238;-75
2023/05/17 04:03:36;;;;;;;16.47;15.10;;;5.00;99.90;;;;;;4966476;28;20596;-76
2023/05/17 04:06:06;;;;;;;16.07;14.97;;;5.00;99.90;;;;;;4958059;28;20272;-76
2023/05/17 04:08:34;;;;;;;15.67;14.67;;;5.10;99.90;;;;;;4972571;28;20202;-79
2023/05/17 04:11:08;;;;;;;16.53;15.00;;;5.20;99.90;;;;;;4962497;28;20229;-80
2023/05/17 04:13:36;;;;;;;15.67;14.47;;;5.20;99.90;;;;;;4961795;28;20218;-80
2023/05/17 04:16:03;;;;;;;15.77;14.60;;;5.30;99.90;;;;;;4960774;28;20224;-79
2023/05/17 04:18:34;;;;;;;15.03;14.03;;;5.40;99.90;;;;;;4964262;28;20203;-79
2023/05/17 04:21:02;;;;;;;15.07;14.03;;;5.50;99.90;;;;;;4969845;28;20197;-77
2023/05/17 04:23:29;;;;;;;15.47;14.40;;;5.50;99.90;;;;;;4982201;28;20216;-77
2023/05/17 04:25:56;;;;;;;15.00;13.70;;;5.60;99.90;;;;;;4966852;28;20317;-78
2023/05/17 04:28:24;;;;;;;15.00;13.90;;;5.60;99.90;;;;;;4969850;28;20266;-78
2023/05/17 04:30:52;;;;;;;13.83;12.93;;;5.80;99.90;;;;;;4974680;28;20203;-77
2023/05/17 04:33:19;;;;;;;13.50;12.50;;;6.00;99.90;;;;;;4974786;28;20254;-78
2023/05/17 04:35:47;;;;;;;13.57;12.57;;;6.10;99.90;;;;;;4975656;28;20215;-78
2023/05/17 04:38:15;;;;;;;13.37;12.50;;;6.10;99.90;;;;;;4970643;28;20224;-78
2023/05/17 04:40:42;;;;;;;12.83;12.03;;;6.20;99.90;;;;;;4975342;28;20203;-78
2023/05/17 04:43:09;;;;;;;13.60;12.60;;;6.30;99.90;;;;;;4975941;28;20211;-78
2023/05/17 04:45:37;;;;;;;13.43;12.60;;;6.40;99.90;;;;;;4976694;28;20220;-78
2023/05/17 04:48:04;;;;;;;13.87;12.97;;;6.50;99.90;;;;;;4973522;28;20205;-76
2023/05/17 04:50:32;;;;;;;14.10;13.03;;;6.70;99.90;;;;;;4960705;28;20412;-78
2023/05/17 04:53:00;;;;;;;13.97;12.97;;;7.00;99.90;;;;;;4967830;28;20227;-79
2023/05/17 04:55:29;;;;;;;14.03;12.97;;;7.30;99.90;;;;;;4981369;28;20216;-79
2023/05/17 04:57:56;;;;;;;10.47;9.63;;;7.60;99.90;;;;;;4978151;28;20211;-79
2023/05/17 05:00:24;;;;;;;18.67;17.33;;;7.70;99.90;;;;;;4983269;28;20209;-79
2023/05/17 05:02:59;;;;;;;5.43;4.93;;;7.80;99.90;;;;;;4973224;28;20196;-80
2023/05/17 05:05:26;;;;;;;13.20;12.37;;;7.90;99.90;;;;;;4974286;28;20222;-79
2023/05/17 05:07:53;;;;;;;11.43;10.30;;;8.00;99.90;;;;;;4973533;28;20201;-79
2023/05/17 05:10:22;;;;;;;6.77;5.10;;;8.10;99.90;;;;;;4976683;28;20281;-80
2023/05/17 05:12:49;;;;;;;5.23;4.67;;;8.20;99.90;;;;;;4976991;28;20225;-79
2023/05/17 05:15:16;;;;;;;8.57;7.87;;;8.20;99.90;;;;;;4961708;28;20701;-79
2023/05/17 05:17:50;;;;;;;9.23;8.37;;;8.30;99.90;;;;;;4966672;28;20305;-79
2023/05/17 05:20:17;;;;;;;9.30;8.60;;;8.40;99.90;;;;;;4963506;28;20284;-78
2023/05/17 05:22:44;;;;;;;11.20;10.07;;;8.60;99.90;;;;;;4988643;28;20206;-78
2023/05/17 05:25:11;;;;;;;9.10;7.50;;;8.80;99.90;;;;;;4977742;28;20221;-80
2023/05/17 05:27:40;;;;;;;5.03;4.50;;;9.00;99.90;;;;;;4961473;28;20284;-77
2023/05/17 05:30:08;;;;;;;5.93;4.40;;;9.20;99.90;;;;;;4967279;28;20217;-80
2023/05/17 05:32:37;;;;;;;8.17;7.37;;;9.40;99.90;;;;;;4980184;28;20650;-79
2023/05/17 05:35:05;;;;;;;5.17;4.00;;;9.60;99.90;;;;;;4975436;28;20725;-78
2023/05/17 05:37:32;;;;;;;6.70;4.63;;;9.90;99.90;;;;;;4971857;28;20252;-78
2023/05/17 05:39:59;;;;;;;7.20;3.97;;;10.00;99.90;;;;;;4972413;28;20333;-78
2023/05/17 05:42:28;;;;;;;5.63;4.27;;;10.30;99.90;;;;;;4973269;28;20270;-79
2023/05/17 05:44:56;;;;;;;4.63;4.17;;;10.70;99.90;;;;;;4974830;28;20225;-78
2023/05/17 05:47:24;;;;;;;4.47;3.63;;;11.20;99.90;;;;;;4960091;28;20204;-81
2023/05/17 05:49:52;;;;;;;5.27;4.23;;;11.40;99.90;;;;;;4961522;28;20238;-78
2023/05/17 05:52:19;;;;;;;5.87;5.27;;;11.50;99.90;;;;;;4964223;28;20205;-77
2023/05/17 05:54:46;;;;;;;4.27;3.33;;;11.50;99.90;;;;;;4966397;28;20217;-78
2023/05/17 05:57:12;;;;;;;4.30;3.90;;;11.60;99.90;;;;;;4965552;28;20222;-78
2023/05/17 05:59:40;;;;;;;3.67;3.37;;;11.70;99.90;;;;;;4975004;28;20241;-78
2023/05/17 06:02:08;;;;;;;7.43;3.60;;;11.80;99.90;;;;;;4961710;28;20678;-81
2023/05/17 06:04:35;;;;;;;4.87;3.50;;;11.70;99.90;;;;;;4965236;28;20254;-79
2023/05/17 06:07:02;;;;;;;4.90;3.57;;;11.70;99.90;;;;;;4978158;28;20704;-80
2023/05/17 06:09:29;;;;;;;4.80;3.50;;;11.90;99.90;;;;;;4977208;28;20198;-79
2023/05/17 06:11:55;;;;;;;4.40;3.37;;;11.90;99.90;;;;;;4959993;28;20674;-80
2023/05/17 06:14:22;;;;;;;6.83;4.00;;;11.90;99.90;;;;;;4972687;28;20791;-77
2023/05/17 06:16:49;;;;;;;5.47;3.80;;;11.90;99.90;;;;;;4955012;28;20203;-76
2023/05/17 06:19:18;;;;;;;5.67;5.13;;;11.70;99.90;;;;;;4955088;28;20198;-77
2023/05/17 06:21:45;;;;;;;5.10;4.60;;;11.60;99.90;;;;;;4972520;28;20193;-76
2023/05/17 06:24:12;;;;;;;5.63;4.20;;;11.80;99.90;;;;;;4954500;28;20849;-77
2023/05/17 06:26:39;;;;;;;4.80;4.20;;;12.10;99.90;;;;;;4955243;28;20289;-76
2023/05/17 06:29:06;;;;;;;4.17;3.70;;;12.50;99.90;;;;;;4972704;28;20190;-76
2023/05/17 06:31:33;;;;;;;4.33;3.67;;;12.90;99.90;;;;;;4972324;28;20204;-76
2023/05/17 06:33:59;;;;;;;4.07;3.30;;;13.40;99.90;;;;;;4971783;28;20218;-76
2023/05/17 06:36:28;;;;;;;5.50;3.97;;;13.70;99.90;;;;;;4972375;28;20201;-76
2023/05/17 06:38:55;;;;;;;6.50;4.07;;;14.10;99.90;;;;;;4972348;28;20211;-76
2023/05/17 06:41:21;;;;;;;5.00;3.40;;;14.30;99.90;;;;;;4953710;28;20233;-76
2023/05/17 06:43:48;;;;;;;4.87;3.70;;;14.70;99.90;;;;;;4971813;28;20189;-76
2023/05/17 06:46:15;;;;;;;7.00;4.00;;;14.90;99.90;;;;;;4972015;28;20276;-76
2023/05/17 06:48:42;;;;;;;4.63;3.70;;;15.00;99.90;;;;;;4954908;28;20673;-77
2023/05/17 06:51:08;;;;;;;4.37;3.33;;;15.30;99.90;;;;;;4970879;28;20280;-77
2023/05/17 06:53:37;;;;;;;4.60;3.57;;;15.30;99.90;;;;;;4971834;28;20272;-77
2023/05/17 06:56:04;;;;;;;4.00;3.47;;;15.30;99.90;;;;;;4971979;28;20655;-77
2023/05/17 06:58:31;;;;;;;5.40;3.50;;;15.50;99.90;;;;;;4954955;28;20212;-77
2023/05/17 07:00:58;;;;;;;4.67;3.40;;;15.60;99.90;;;;;;4972009;28;20202;-76
2023/05/17 07:03:25;;;;;;;6.57;4.07;;;15.50;99.90;;;;;;4971492;28;20194;-77
2023/05/17 07:05:52;;;;;;;4.50;3.50;;;15.70;99.90;;;;;;4975635;28;20300;-77
2023/05/17 07:08:19;;;;;;;4.53;3.93;;;16.10;99.90;;;;;;4972133;28;20272;-77
2023/05/17 07:10:47;;;;;;;4.13;3.10;;;16.30;99.90;;;;;;4972423;28;20201;-77
2023/05/17 07:13:14;;;;;;;4.70;4.30;;;16.50;99.90;;;;;;4972046;28;20561;-76
2023/05/17 07:15:41;;;;;;;9.20;7.67;;;16.40;99.90;;;;;;4954599;28;20717;-77
2023/05/17 07:18:08;;;;;;;9.03;8.13;;;16.50;99.90;;;;;;4954751;28;20284;-77
2023/05/17 07:20:35;;;;;;;8.73;7.70;;;16.20;99.90;;;;;;4964398;28;20212;-76
2023/05/17 07:23:02;;;;;;;7.53;6.93;;;16.50;99.90;;;;;;4975278;28;20202;-79
2023/05/17 07:25:29;;;;;;;6.37;5.77;;;16.40;99.90;;;;;;4963969;28;20218;-78
2023/05/17 07:27:57;;;;;;;8.37;7.57;;;16.50;99.90;;;;;;4982974;28;20226;-79
2023/05/17 07:30:24;;;;;;;8.90;8.03;;;16.60;99.90;;;;;;4983872;28;20212;-78
2023/05/17 07:32:51;;;;;;;5.50;4.90;;;17.10;99.90;;;;;;4986588;28;20231;-78
2023/05/17 07:35:17;;;;;;;5.40;3.93;;;17.40;99.90;;;;;;4982025;28;20220;-77
2023/05/17 07:37:44;;;;;;;6.60;4.00;;;16.90;99.90;;;;;;4980895;28;20200;-78
2023/05/17 07:40:12;;;;;;;8.53;6.50;;;16.70;99.90;;;;;;4964920;28;20208;-79
2023/05/17 07:42:39;;;;;;;6.17;5.13;;;16.30;99.90;;;;;;4981234;28;20203;-77
2023/05/17 07:45:08;;;;;;;7.53;4.60;;;15.40;99.90;;;;;;4980262;28;20625;-77
2023/05/17 07:47:35;;;;;;;5.83;5.20;;;15.10;99.90;;;;;;4982382;28;20199;-79
2023/05/17 07:50:03;;;;;;;7.33;4.83;;;15.20;99.90;;;;;;4966453;28;20211;-78
2023/05/17 07:52:30;;;;;;;6.13;4.83;;;15.50;99.90;;;;;;4984568;28;20480;-80
2023/05/17 07:54:57;;;;;;;5.73;3.80;;;15.80;99.90;;;;;;4964008;28;20230;-79
2023/05/17 07:57:23;;;;;;;7.87;6.90;;;15.90;99.90;;;;;;4983233;28;20216;-78
2023/05/17 07:59:50;;;;;;;7.73;4.13;;;15.90;99.90;;;;;;4976319;28;20202;-78
2023/05/17 08:02:18;;;;;;;6.27;3.23;;;16.20;99.90;;;;;;4982007;28;20201;-78
2023/05/17 08:04:45;;;;;;;7.00;4.93;;;16.10;99.90;;;;;;4985029;28;20215;-77
2023/05/17 08:07:12;;;;;;;6.90;4.03;;;16.00;99.90;;;;;;4965476;28;20207;-79
2023/05/17 08:09:42;;;;;;;7.77;6.40;;;16.40;99.90;;;;;;4979105;28;20190;-76
2023/05/17 08:12:09;;;;;;;8.70;5.90;;;16.70;99.90;;;;;;4957137;28;20218;-76
2023/05/17 08:14:36;;;;;;;5.40;4.90;;;17.20;99.90;;;;;;4974107;28;20282;-76
2023/05/17 08:17:02;;;;;;;3.77;3.33;;;17.50;99.90;;;;;;4956956;28;20589;-76
2023/05/17 08:19:30;;;;;;;4.80;3.97;;;17.80;99.90;;;;;;4975190;28;20743;-75
2023/05/17 08:21:58;;;;;;;8.03;7.40;;;17.80;99.90;;;;;;4974369;28;20192;-76
2023/05/17 08:24:25;;;;;;;8.97;8.17;;;18.40;99.90;;;;;;4978466;28;20221;-76
2023/05/17 08:26:52;;;;;;;9.27;8.37;;;17.80;99.90;;;;;;4974391;28;20268;-76
2023/05/17 08:29:19;;;;;;;12.00;11.03;;;16.80;99.90;;;;;;4974211;28;20200;-76
2023/05/17 08:31:46;;;;;;;8.07;5.57;;;15.80;99.90;;;;;;4958797;28;20225;-75
2023/05/17 08:34:13;;;;;;;4.37;3.93;;;15.30;99.90;;;;;;4975116;28;20225;-76
2023/05/17 08:36:41;;;;;;;7.37;4.30;;;15.00;99.90;;;;;;4973734;28;20256;-76
2023/05/17 08:39:08;;;;;;;9.60;8.60;;;14.70;99.90;;;;;;4974073;28;20224;-75
2023/05/17 08:41:35;;;;;;;10.60;8.70;;;14.40;99.90;;;;;;4956580;28;20200;-76
2023/05/17 08:44:03;;;;;;;9.63;7.03;;;14.30;99.90;;;;;;4974155;28;20249;-76
2023/05/17 08:46:32;;;;;;;6.93;6.07;;;14.20;99.90;;;;;;4973865;28;20192;-76
2023/05/17 08:49:00;;;;;;;11.10;10.30;;;13.90;99.90;;;;;;4973998;28;20197;-76
2023/05/17 08:51:28;;;;;;;10.33;9.43;;;14.00;99.90;;;;;;4973752;28;20830;-76
2023/05/17 08:53:57;;;;;;;6.50;6.00;;;13.90;99.90;;;;;;4955946;28;20307;-76
2023/05/17 08:56:25;;;;;;;8.77;6.20;;;14.50;99.90;;;;;;4956447;28;20691;-76
2023/05/17 08:58:56;;;;;;;8.47;5.53;;;15.00;99.90;;;;;;4973987;28;20204;-76
2023/05/17 09:01:23;;;;;;;8.63;6.60;;;14.70;99.90;;;;;;4972828;28;20711;-76
2023/05/17 09:03:50;;;;;;;6.80;6.10;;;14.80;99.90;;;;;;4958723;28;20204;-76
2023/05/17 09:06:21;;;;;;;10.37;8.77;;;14.70;99.90;;;;;;4953617;28;20236;-76
2023/05/17 09:08:49;;;;;;;10.07;6.90;;;14.70;99.90;;;;;;4973632;28;20204;-76
2023/05/17 09:11:26;;;;;;;9.17;6.73;;;14.60;99.90;;;;;;4973480;28;20283;-76
2023/05/17 09:13:53;;;;;;;12.93;11.90;;;14.40;99.90;;;;;;4968163;28;20697;-76
2023/05/17 09:16:21;;;;;;;11.63;10.67;;;14.40;99.90;;;;;;4973136;28;20206;-76
2023/05/17 09:18:54;;;;;;;12.30;11.10;;;14.60;99.90;;;;;;4973448;28;20215;-76
2023/05/17 09:21:22;;;;;;;7.50;6.00;;;15.30;99.90;;;;;;4973409;28;20225;-76
2023/05/17 09:23:50;;;;;;;9.57;6.10;;;15.70;99.90;;;;;;4958257;28;20724;-76
2023/05/17 09:26:17;;;;;;;8.80;6.57;;;15.50;99.90;;;;;;4974908;28;20205;-76
2023/05/17 09:28:46;;;;;;;8.07;7.03;;;15.40;99.90;;;;;;4973197;28;20581;-75
2023/05/17 09:31:16;;;;;;;10.30;9.50;;;15.30;99.90;;;;;;4955573;28;20278;-76
2023/05/17 09:33:44;;;;;;;11.00;10.07;;;15.90;99.90;;;;;;4976119;28;20265;-76
2023/05/17 09:36:16;;;;;;;7.50;6.03;;;16.50;99.90;;;;;;4972997;28;20206;-76
2023/05/17 09:38:43;;;;;;;9.27;8.37;;;17.20;99.90;;;;;;4972911;28;20195;-76
2023/05/17 09:41:10;;;;;;;6.10;4.50;;;17.00;99.90;;;;;;4968811;28;20206;-76
2023/05/17 09:43:37;;;;;;;10.90;9.20;;;17.10;99.90;;;;;;4955229;28;20203;-76
2023/05/17 09:46:05;;;;;;;10.93;9.97;;;17.50;99.90;;;;;;4972407;28;20282;-76
2023/05/17 09:48:32;;;;;;;9.67;8.87;;;17.20;99.90;;;;;;4972876;28;20203;-76
2023/05/17 09:51:00;;;;;;;7.83;5.10;;;17.20;99.90;;;;;;4955567;28;20560;-76
2023/05/17 09:53:29;;;;;;;9.10;8.20;;;17.90;99.90;;;;;;4977523;28;20209;-76
2023/05/17 09:55:57;;;;;;;9.13;6.83;;;17.80;99.90;;;;;;4972701;28;20285;-76
2023/05/17 09:58:26;;;;;;;11.30;10.47;;;16.80;99.90;;;;;;4972927;28;20233;-76
2023/05/17 10:00:54;;;;;;;11.40;10.50;;;16.30;99.90;;;;;;4972535;28;20575;-76
2023/05/17 10:03:22;;;;;;;5.77;5.23;;;16.10;99.90;;;;;;4971998;28;20291;-75
2023/05/17 10:05:52;;;;;;;5.90;5.30;;;16.00;99.90;;;;;;4977560;28;20722;-75
2023/05/17 10:08:24;;;;;;;6.20;5.53;;;16.80;99.90;;;;;;4972771;28;20783;-76
2023/05/17 10:10:54;;;;;;;8.47;6.30;;;16.60;99.90;;;;;;4967057;28;20203;-76
2023/05/17 10:13:24;;;;;;;7.57;6.87;;;16.20;99.90;;;;;;4955114;28;20253;-75
2023/05/17 10:15:52;;;;;;;6.00;5.40;;;16.00;99.90;;;;;;4972149;28;20252;-76
2023/05/17 10:18:20;;;;;;;6.97;6.27;;;15.90;99.90;;;;;;4972426;28;20256;-76
2023/05/17 10:20:50;;;;;;;6.20;4.57;;;15.90;99.90;;;;;;4972535;28;20236;-76
2023/05/17 10:23:18;;;;;;;9.53;8.67;;;16.10;99.90;;;;;;4972281;28;20264;-76
2023/05/17 10:25:45;;;;;;;6.87;6.10;;;15.70;99.90;;;;;;4977740;28;20214;-76
2023/05/17 10:28:14;;;;;;;7.17;6.53;;;15.80;99.90;;;;;;4972434;28;20260;-75
2023/05/17 10:30:42;;;;;;;7.37;6.67;;;15.50;99.90;;;;;;4972176;28;20209;-76
2023/05/17 10:33:10;;;;;;;10.40;9.43;;;15.40;99.90;;;;;;4977768;28;20280;-76
2023/05/17 10:35:37;;;;;;;10.47;9.57;;;15.30;99.90;;;;;;4971937;28;20218;-76
2023/05/17 10:38:06;;;;;;;11.07;10.00;;;15.40;99.90;;;;;;4972533;28;20268;-76
2023/05/17 10:40:35;;;;;;;8.70;7.10;;;14.90;99.90;;;;;;4954887;28;20627;-75
2023/05/17 10:43:05;;;;;;;11.50;10.50;;;15.00;99.90;;;;;;4972125;28;20252;-76
2023/05/17 10:45:31;;;;;;;8.00;6.37;;;15.00;99.90;;;;;;4954292;28;20284;-76
2023/05/17 10:48:04;;;;;;;6.70;5.97;;;15.20;99.90;;;;;;4972329;28;20614;-76
2023/05/17 10:50:31;;;;;;;9.60;8.80;;;15.20;99.90;;;;;;4972269;28;20682;-76
2023/05/17 10:52:59;;;;;;;10.03;9.13;;;15.10;99.90;;;;;;4960435;28;20644;-76
2023/05/17 10:55:44;;;;;;;9.17;8.33;;;15.30;99.90;;;;;;4971596;28;20261;-76
2023/05/17 10:58:16;;;;;;;9.47;8.67;;;15.70;99.90;;;;;;4973349;28;20204;-76
2023/05/17 11:00:45;;;;;;;10.30;9.47;;;15.80;99.90;;;;;;4975760;28;20253;-76
2023/05/17 11:03:14;;;;;;;6.37;5.43;;;15.90;99.90;;;;;;4966332;28;20285;-76
2023/05/17 11:05:44;;;;;;;11.43;10.40;;;15.90;99.90;;;;;;4981042;28;20229;-76
2023/05/17 11:08:16;;;;;;;10.80;9.80;;;15.90;99.90;;;;;;4958363;28;20205;-76
2023/05/17 11:11:10;;;;;;;10.73;9.70;;;15.40;99.90;;;;;;4975710;28;20198;-76
2023/05/17 11:13:46;;;;;;;10.83;10.00;;;15.10;99.90;;;;;;4975275;28;20597;-76
2023/05/17 11:16:16;;;;;;;10.27;7.70;;;15.20;99.90;;;;;;4975720;28;20764;-75
2023/05/17 11:18:47;;;;;;;7.23;6.53;;;15.30;99.90;;;;;;4975679;28;20244;-76
2023/05/17 11:21:15;;;;;;;11.13;10.30;;;15.70;99.90;;;;;;4975553;28;20208;-76
2023/05/17 11:23:43;;;;;;;8.73;7.93;;;15.80;99.90;;;;;;4976639;28;20273;-76
2023/05/17 11:26:16;;;;;;;8.43;7.33;;;16.00;99.90;;;;;;4979360;28;20249;-76
2023/05/17 11:28:43;;;;;;;8.77;7.97;;;16.00;99.90;;;;;;4975631;28;20249;-76
2023/05/17 11:31:10;;;;;;;6.07;5.50;;;16.00;99.90;;;;;;4957878;28;20281;-76
2023/05/17 11:33:40;;;;;;;8.10;7.33;;;15.90;99.90;;;;;;4981753;28;20613;-76
2023/05/17 11:36:15;;;;;;;9.03;8.17;;;15.90;99.90;;;;;;4975980;28;20253;-76
2023/05/17 11:38:42;;;;;;;10.50;5.63;;;15.90;99.90;;;;;;4967445;28;20208;-76
2023/05/17 11:41:23;;;;;;;7.00;6.17;;;16.20;99.90;;;;;;4957842;28;20301;-76
2023/05/17 11:43:50;;;;;;;7.23;6.63;;;16.60;99.90;;;;;;4957291;28;20254;-76
2023/05/17 11:46:21;;;;;;;6.70;5.40;;;16.70;99.90;;;;;;4974752;28;20246;-76
2023/05/17 11:48:50;;;;;;;8.00;7.30;;;16.60;99.90;;;;;;4974964;28;20214;-75
2023/05/17 11:51:18;;;;;;;8.03;7.30;;;16.20;99.90;;;;;;4974670;28;20203;-75
2023/05/17 11:53:47;;;;;;;7.40;6.60;;;15.90;99.90;;;;;;4974649;28;20205;-76
2023/05/17 11:56:15;;;;;;;8.40;7.60;;;15.80;99.90;;;;;;4957579;28;20230;-76
2023/05/17 11:58:44;;;;;;;7.70;6.90;;;15.80;99.90;;;;;;4973558;28;20663;-75
2023/05/17 12:01:10;;;;;;;8.87;7.93;;;15.80;99.90;;;;;;4974675;28;20633;-76
2023/05/17 12:03:37;;;;;;;8.33;7.60;;;15.80;99.90;;;;;;4975392;28;20213;-76
2023/05/17 12:06:09;;;;;;;12.13;9.80;;;15.50;99.90;;;;;;4962220;28;20284;-76
2023/05/17 12:08:37;;;;;;;10.40;9.53;;;15.40;99.90;;;;;;4974720;28;20202;-76
2023/05/17 12:11:05;;;;;;;11.03;10.13;;;15.40;99.90;;;;;;4957193;28;20662;-76
2023/05/17 12:13:33;;;;;;;11.07;10.27;;;15.50;99.90;;;;;;4974200;28;20226;-76
2023/05/17 12:16:04;;;;;;;10.03;9.13;;;15.60;99.90;;;;;;4974203;28;20225;-76
2023/05/17 12:18:38;;;;;;;12.37;11.40;;;15.70;99.90;;;;;;4974484;28;20205;-75
2023/05/17 12:21:06;;;;;;;7.60;6.83;;;16.00;99.90;;;;;;4974578;28;20198;-76
2023/05/17 12:23:34;;;;;;;9.83;8.93;;;16.10;99.90;;;;;;4974477;28;20669;-76
2023/05/17 12:26:05;;;;;;;10.43;9.53;;;16.10;99.90;;;;;;4979815;28;20222;-76
2023/05/17 12:28:32;;;;;;;9.33;8.27;;;16.10;99.90;;;;;;4974379;28;20198;-76
2023/05/17 12:31:02;;;;;;;10.07;9.10;;;15.90;99.90;;;;;;4956875;28;20205;-76
2023/05/17 12:33:35;;;;;;;8.83;7.43;;;15.60;99.90;;;;;;4980238;28;20194;-76
2023/05/17 12:36:04;;;;;;;9.90;9.10;;;15.60;99.90;;;;;;4956826;28;20277;-76
2023/05/17 12:38:32;;;;;;;11.73;8.90;;;15.70;99.90;;;;;;4974154;28;20309;-76
2023/05/17 12:41:03;;;;;;;7.07;5.20;;;15.60;99.90;;;;;;4973893;28;20252;-75
2023/05/17 12:43:30;;;;;;;6.23;5.13;;;15.60;99.90;;;;;;4973599;28;20669;-76
2023/05/17 12:46:07;;;;;;;7.70;5.40;;;15.70;99.90;;;;;;4956424;28;20226;-75
2023/05/17 12:48:35;;;;;;;8.00;5.80;;;15.80;99.90;;;;;;4974172;28;20689;-76